デンパサール の空港の天気 - METARとTAF

デンパサール国際空港 ( WADD / DPS ) - インドネシア バリ島デンパサール
飛行場実況気象(Metar)
観測時間02/28 06:00 WITA (02/27 22:00 UTC)
風向・風速北北西 2m/s
視程10km以上
天気現象
少しの雲 雲底高度 520m
気温25℃
湿度89%
気圧1008hPa
METARWADD 272200Z 33003KT 9999 FEW017 25/23 Q1008 NOSIG
過去の天気等 Google飛行場航空写真 Wunderground天気予報

過去48時間のMETAR

飛行場予報(TAF)
発表時間: 2/28 01:00 WITA (2/27 17:00 UTC)
予報対象時間: 28日2時 WITA ~ 1日2時 WITA
風向・風速不定 3m/s
視程10km以上
全天の4割程度の雲 雲底高度 520m
28日10時 WITA ~ 28日12時 WITA に徐々に
風向・風速東南東 5m/s
28日14時 WITA ~ 28日18時 WITA に一時的に
少しの積乱雲 雲底高度 490m
全天の4割程度の雲 雲底高度 490m
28日18時 WITA ~ 28日20時 WITA に徐々に
風向・風速不定 3m/s
TAF WADD 271700Z 2718/2818 VRB05KT 9999 SCT017
BECMG 2802/2804 12010KT
TEMPO 2806/2810 FEW016CB SCT016
BECMG 2810/2812 VRB05KT